Chillicothe, Texas
Current Conditions -  °F | °C
As of 4:15 AM on Friday 19 Dec 2014 (Local Time) from KF05 Reporting Station
Overcast Overcast  
Wind Chill: 39°   Ceiling: 800
Heat Index: 43°   Visibility: 7mi
Dew Point: 38°   Wind: 7mph
Humidity: 82%   Direction: 30°NNE
Pressure: 30.17"   Gusts: NA
Location:  34.26°N, 99.52°W
Report Text: KF05 191015Z AUTO 03006KT 7SM BKN008 OVC014 06/03 A3017 RMK AO1 T00610032
Loading
Personal Weather Stations






























Interactive Weather Map New forecast layout! Learn more

10-Day Weather Forecast

Advertisements
Track Severe Weather on mobile